createdAt,value
2022-11-23T00:04:54.477Z,6.23
2022-11-23T00:09:56.391Z,6.15
2022-11-23T00:14:58.804Z,6.07
2022-11-23T00:20:00.780Z,6.27
2022-11-23T00:25:03.049Z,5.97
2022-11-23T00:30:05.698Z,6.00
2022-11-23T00:35:08.015Z,5.86
2022-11-23T00:40:10.468Z,5.98
2022-11-23T00:45:12.604Z,5.80
2022-11-23T00:50:14.694Z,5.70
2022-11-23T00:55:17.747Z,6.16
2022-11-23T01:00:19.856Z,6.02
2022-11-23T01:05:22.280Z,5.89
2022-11-23T01:10:24.455Z,5.79
2022-11-23T01:15:27.806Z,5.65
2022-11-23T01:20:29.745Z,5.40
2022-11-23T01:25:31.793Z,4.90
2022-11-23T01:30:34.512Z,5.13
2022-11-23T01:35:36.440Z,5.11
2022-11-23T01:40:43.005Z,5.06
2022-11-23T01:45:56.890Z,4.77
2022-11-23T01:51:00.812Z,5.11
2022-11-23T01:56:06.203Z,4.90
2022-11-23T02:01:08.678Z,5.23
2022-11-23T02:06:16.399Z,4.94
2022-11-23T02:11:18.418Z,4.96
2022-11-23T02:16:20.355Z,4.98
2022-11-23T02:21:23.315Z,5.15
2022-11-23T02:26:29.802Z,5.46
2022-11-23T02:31:32.435Z,5.57
2022-11-23T02:36:39.659Z,5.49
2022-11-23T02:41:48.267Z,5.69
2022-11-23T02:46:53.429Z,5.77
2022-11-23T02:51:55.458Z,5.85
2022-11-23T02:57:00.467Z,5.65
2022-11-23T03:02:04.607Z,5.53
2022-11-23T03:07:06.949Z,5.62
2022-11-23T03:12:10.099Z,5.67
2022-11-23T03:17:12.271Z,5.45
2022-11-23T03:22:16.738Z,5.93
2022-11-23T03:27:19.322Z,6.00
2022-11-23T03:32:22.044Z,5.89
2022-11-23T03:37:27.931Z,5.77
2022-11-23T03:42:29.978Z,5.28
2022-11-23T03:47:32.674Z,5.50
2022-11-23T03:52:34.671Z,4.98
2022-11-23T03:57:36.673Z,5.10
2022-11-23T04:02:41.818Z,5.16
2022-11-23T04:08:04.263Z,5.49
2022-11-23T04:13:06.878Z,5.37
2022-11-23T04:18:09.028Z,5.71
2022-11-23T04:23:13.825Z,5.49
2022-11-23T04:28:17.563Z,5.60
2022-11-23T04:33:22.341Z,5.46
2022-11-23T04:38:25.415Z,5.61
2022-11-23T04:43:28.714Z,5.40
2022-11-23T04:48:32.046Z,5.38
2022-11-23T04:53:34.288Z,5.40
2022-11-23T04:58:36.661Z,5.49
2022-11-23T05:03:43.128Z,5.78
2022-11-23T05:08:45.327Z,5.51
2022-11-23T05:14:08.341Z,5.75
2022-11-23T05:19:10.516Z,5.56
2022-11-23T05:24:12.577Z,5.48
2022-11-23T05:29:21.200Z,5.65
2022-11-23T05:34:23.697Z,5.17
2022-11-23T05:39:26.495Z,5.53
2022-11-23T05:44:29.059Z,5.25
2022-11-23T05:49:31.594Z,5.05
2022-11-23T05:54:34.100Z,4.68
2022-11-23T05:59:46.371Z,4.62
2022-11-23T06:04:58.074Z,4.53
2022-11-23T06:10:11.648Z,4.50
2022-11-23T06:15:16.680Z,4.53
2022-11-23T06:20:20.427Z,4.76
2022-11-23T06:25:30.749Z,4.66
2022-11-23T06:30:49.755Z,4.78
2022-11-23T06:35:53.842Z,4.45
2022-11-23T06:41:05.303Z,4.50
2022-11-23T06:46:07.863Z,4.72
2022-11-23T06:51:15.236Z,4.82
2022-11-23T06:56:19.377Z,4.90
2022-11-23T07:01:21.720Z,5.18
2022-11-23T07:06:34.036Z,4.95
2022-11-23T07:11:41.593Z,4.86
2022-11-23T07:16:43.576Z,4.47
2022-11-23T07:21:46.164Z,4.67
2022-11-23T07:26:48.248Z,4.72
2022-11-23T07:31:50.773Z,4.34
2022-11-23T07:37:01.675Z,4.94
2022-11-23T07:42:30.979Z,5.08
2022-11-23T07:47:28.761Z,4.80
2022-11-23T07:52:30.938Z,5.04
2022-11-23T07:57:32.967Z,5.34
2022-11-23T08:02:35.026Z,5.37
2022-11-23T08:07:37.743Z,4.74
2022-11-23T08:12:40.159Z,5.13
2022-11-23T08:17:42.053Z,4.92
2022-11-23T08:22:43.897Z,5.08
2022-11-23T08:27:45.890Z,5.33
2022-11-23T08:32:47.953Z,5.12
2022-11-23T08:37:49.924Z,4.87
2022-11-23T08:42:51.867Z,5.38
2022-11-23T08:47:54.195Z,5.01
2022-11-23T08:52:57.778Z,5.22
2022-11-23T08:58:00.000Z,5.48
2022-11-23T09:03:02.260Z,5.09
2022-11-23T09:08:04.359Z,5.04
2022-11-23T09:13:06.371Z,5.42
2022-11-23T09:18:09.231Z,5.21
2022-11-23T09:23:14.354Z,5.17
2022-11-23T09:28:19.632Z,5.03
2022-11-23T09:33:23.283Z,4.93
2022-11-23T09:38:51.393Z,4.98
2022-11-23T09:44:02.129Z,5.03
2022-11-23T09:49:27.872Z,4.68
2022-11-23T09:54:37.494Z,4.76
2022-11-23T09:59:50.166Z,5.16
2022-11-23T10:04:53.809Z,4.86
2022-11-23T10:10:40.814Z,5.10
2022-11-23T10:15:54.242Z,4.87
2022-11-23T10:21:06.420Z,5.54
2022-11-23T10:26:20.232Z,5.36
2022-11-23T10:31:26.065Z,5.59
2022-11-23T10:36:28.329Z,5.57
2022-11-23T10:41:31.219Z,5.35
2022-11-23T10:46:37.255Z,5.17
2022-11-23T10:51:39.876Z,5.08
2022-11-23T10:56:53.967Z,5.21
2022-11-23T11:02:16.481Z,5.72
2022-11-23T11:07:30.694Z,5.45
2022-11-23T11:12:35.725Z,5.55
2022-11-23T11:17:39.543Z,5.55
2022-11-23T11:22:47.441Z,5.66
2022-11-23T11:27:53.420Z,5.79
2022-11-23T11:33:36.029Z,5.86
2022-11-23T11:38:40.545Z,5.79
2022-11-23T11:43:53.200Z,5.86
2022-11-23T11:48:59.672Z,5.70
2022-11-23T11:54:29.358Z,5.35
2022-11-23T11:59:47.291Z,5.65
2022-11-23T12:04:58.195Z,5.48
2022-11-23T12:10:21.107Z,6.08
2022-11-23T12:15:49.307Z,5.70
2022-11-23T12:21:18.145Z,6.08
2022-11-23T12:26:30.655Z,6.16
2022-11-23T12:31:52.120Z,5.60
2022-11-23T12:37:29.301Z,5.53
2022-11-23T12:42:53.755Z,5.57
2022-11-23T12:47:58.541Z,5.22
2022-11-23T12:53:18.692Z,5.39
2022-11-23T12:58:27.856Z,5.17
2022-11-23T13:03:56.312Z,5.25
2022-11-23T13:09:14.016Z,5.13
2022-11-23T13:14:37.832Z,5.25
2022-11-23T13:19:42.888Z,4.92
2022-11-23T13:25:09.890Z,5.24
2022-11-23T13:30:27.312Z,4.57
2022-11-23T13:35:31.224Z,5.23
2022-11-23T13:40:35.004Z,5.01
2022-11-23T13:45:37.213Z,4.96
2022-11-23T13:50:51.519Z,5.00
2022-11-23T13:55:56.704Z,4.87
2022-11-23T14:00:59.592Z,4.96
2022-11-23T14:06:04.468Z,4.67
2022-11-23T14:11:13.127Z,4.30
2022-11-23T14:16:22.499Z,4.26
2022-11-23T14:22:04.987Z,4.65
2022-11-23T14:27:49.193Z,4.74
2022-11-23T14:32:51.055Z,4.32
2022-11-23T14:38:13.843Z,4.60
2022-11-23T14:43:21.109Z,4.20
2022-11-23T14:48:27.947Z,4.14
2022-11-23T14:53:33.151Z,4.19
2022-11-23T14:58:37.255Z,3.93
2022-11-23T15:03:50.365Z,4.20
2022-11-23T15:09:21.515Z,4.32
2022-11-23T15:14:27.332Z,4.38
2022-11-23T15:19:30.071Z,4.43
2022-11-23T15:24:32.260Z,4.31
2022-11-23T15:29:39.380Z,4.17
2022-11-23T15:34:41.966Z,4.05
2022-11-23T15:39:44.561Z,4.19
2022-11-23T15:44:50.944Z,3.67
2022-11-23T15:50:02.920Z,4.16
2022-11-23T15:55:14.487Z,3.87
2022-11-23T16:00:25.721Z,3.56
2022-11-23T16:05:27.967Z,4.10
2022-11-23T16:10:32.565Z,3.99
2022-11-23T16:15:37.603Z,4.10
2022-11-23T16:20:58.600Z,4.36
2022-11-23T16:26:05.931Z,4.24
2022-11-23T16:31:43.150Z,3.95
2022-11-23T16:36:45.578Z,3.70
2022-11-23T16:41:47.637Z,3.83
2022-11-23T16:46:49.735Z,3.45
2022-11-23T16:51:56.966Z,3.10
2022-11-23T16:57:00.298Z,3.35
2022-11-23T17:02:02.316Z,3.39
2022-11-23T17:07:04.288Z,3.57
2022-11-23T17:12:13.464Z,3.38
2022-11-23T17:17:22.079Z,3.39
2022-11-23T17:22:23.948Z,3.48
2022-11-23T17:27:25.984Z,3.43
2022-11-23T17:32:28.329Z,3.73
2022-11-23T17:37:30.412Z,3.91
2022-11-23T17:42:32.313Z,3.99
2022-11-23T17:47:34.608Z,3.59
2022-11-23T17:52:37.100Z,3.71
2022-11-23T17:57:39.028Z,3.38
2022-11-23T18:02:40.937Z,2.79
2022-11-23T18:07:49.418Z,2.96
2022-11-23T18:12:54.459Z,2.67
2022-11-23T18:18:01.534Z,3.25
2022-11-23T18:23:06.399Z,3.24
2022-11-23T18:28:08.288Z,3.25
2022-11-23T18:33:10.236Z,2.66
2022-11-23T18:38:12.187Z,3.10
2022-11-23T18:43:14.651Z,3.64
2022-11-23T18:48:16.588Z,3.34
2022-11-23T18:53:18.954Z,3.09
2022-11-23T18:58:20.981Z,3.18
2022-11-23T19:03:23.115Z,2.98
2022-11-23T19:08:25.179Z,3.16
2022-11-23T19:13:27.140Z,3.31
2022-11-23T19:18:29.003Z,3.39
2022-11-23T19:23:31.045Z,3.05
2022-11-23T19:28:33.399Z,2.91
2022-11-23T19:33:35.391Z,2.84
2022-11-23T19:38:42.067Z,2.47
2022-11-23T19:43:45.468Z,2.96
2022-11-23T19:48:48.091Z,2.57
2022-11-23T19:53:51.118Z,2.53
2022-11-23T19:59:02.260Z,2.74
2022-11-23T20:04:09.667Z,3.02
2022-11-23T20:09:17.028Z,2.87
2022-11-23T20:14:19.942Z,2.70
2022-11-23T20:19:21.819Z,2.82
2022-11-23T20:24:23.716Z,2.86
2022-11-23T20:29:25.801Z,2.97
2022-11-23T20:34:27.736Z,2.66
2022-11-23T20:39:29.641Z,2.39
2022-11-23T20:44:34.060Z,2.72
2022-11-23T20:49:36.363Z,2.88
2022-11-23T20:54:38.422Z,3.13
2022-11-23T20:59:41.011Z,3.20
2022-11-23T21:04:42.907Z,3.21
2022-11-23T21:09:44.912Z,3.01
2022-11-23T21:14:46.826Z,3.01
2022-11-23T21:19:48.812Z,3.00
2022-11-23T21:24:50.923Z,2.65
2022-11-23T21:29:53.301Z,2.95
2022-11-23T21:34:55.949Z,2.82
2022-11-23T21:39:57.945Z,2.87
2022-11-23T21:44:59.917Z,2.61
2022-11-23T21:50:01.854Z,2.65
2022-11-23T21:55:04.308Z,2.68
2022-11-23T22:00:06.905Z,2.58
2022-11-23T22:05:14.066Z,2.52
2022-11-23T22:10:16.331Z,2.64
2022-11-23T22:15:18.268Z,2.67
2022-11-23T22:20:20.212Z,2.70
2022-11-23T22:25:22.226Z,2.87
2022-11-23T22:30:24.187Z,2.89
2022-11-23T22:35:26.087Z,2.54
2022-11-23T22:40:38.776Z,2.87
2022-11-23T22:45:40.713Z,2.50
2022-11-23T22:50:43.994Z,2.51
2022-11-23T22:55:46.135Z,2.66
2022-11-23T23:00:49.401Z,3.04
2022-11-23T23:05:55.359Z,2.98
2022-11-23T23:11:03.758Z,2.79
2022-11-23T23:16:08.000Z,2.94
2022-11-23T23:21:15.033Z,2.86
2022-11-23T23:26:19.164Z,2.43
2022-11-23T23:31:21.512Z,2.52
2022-11-23T23:36:24.037Z,2.56
2022-11-23T23:41:25.937Z,2.93
2022-11-23T23:46:27.911Z,2.44
2022-11-23T23:51:30.032Z,2.16
2022-11-23T23:56:32.224Z,2.40
